Chaska, MN (55318)

6:41 AM CST on December 05, 2016 (GMT -0600)
Hammers Haven | | Change Station

Elev 935 ft 44.82 °N, 93.61 °W | Updated 43 seconds ago

Clear
Clear
28.6 °F
Feels Like 29 °F
N
2.0
Wind Variable Wind from ESE
Gusts 4.0 mph

Today
High -- | Low -- °F
--% Chance of Precip.
Yesterday
High -- | Low -- °F
Precip. -- in
Pressure 29.79 in
Visibility 8.0 miles
Clouds Clear
Windchill 29 °F
Dew Point 28 °F
Humidity 96%
Rainfall 0.00 in
Snow Depth Not available.
7:36 AM 4:33 PM
Waxing Crescent, 31% visible
METAR KFCM 051153Z 08003KT 8SM CLR M02/M03 A2976 RMK AO2 SLP087 I1000 I6002 T10221033 11006 21022 56011
Pressure 29.79 in
Visibility 8.0 miles
Clouds Clear
Windchill 29 °F
Dew Point 28 °F
Humidity 96%
Rainfall 0.00 in
Snow Depth Not available.
7:36 AM 4:33 PM
Waxing Crescent, 31% visible
METAR KFCM 051153Z 08003KT 8SM CLR M02/M03 A2976 RMK AO2 SLP087 I1000 I6002 T10221033 11006 21022 56011

10-Day Weather Forecast

Almanac

Astronomy

Dec. 05, 2016 Rise Set
Actual Time
Civil Twilight
Nautical Twilight
Astronomical Twilight
Moon
Length of Visible Light
Length of Day
Tomorrow will be .
, % of the Moon is Illuminated

Today's Extremes

State Highs State Lows

Community

WunderPhotos

Upload Photos

1,955,778 photos uploaded!

WunderBlog® & News

Nearby

Air Quality

  Air Quality AQ Index Pollutant
Not available.

Snow Depth

Station Depth Elevation

Earthquake Activity

City Distance Mag. Time & Date
Minimum magnitude displayed is 2.5.

Coastal Water Temperatures

Place Temperature

Stations

Nearby Weather Stations

Station Location Temp. Windchill Dew Point Humidity Wind Precip. Elev Updated Type
                   

Watches & Warnings

There are currently no watches in effect.